sensor_id;sensor_type;location;lat;lon;timestamp;P1;durP1;ratioP1;P2;durP2;ratioP2
56653;SDS011;45096;52.302;4.634;2023-09-19T00:02:01;5.75;;;1.85;;
56653;SDS011;45096;52.302;4.634;2023-09-19T00:04:28;5.47;;;2.00;;
56653;SDS011;45096;52.302;4.634;2023-09-19T00:06:55;2.30;;;1.50;;
56653;SDS011;45096;52.302;4.634;2023-09-19T00:09:21;4.85;;;1.77;;
56653;SDS011;45096;52.302;4.634;2023-09-19T00:11:46;4.28;;;1.80;;
56653;SDS011;45096;52.302;4.634;2023-09-19T00:14:12;4.50;;;1.95;;
56653;SDS011;45096;52.302;4.634;2023-09-19T00:16:37;3.67;;;1.65;;
56653;SDS011;45096;52.302;4.634;2023-09-19T00:19:02;5.45;;;1.60;;
56653;SDS011;45096;52.302;4.634;2023-09-19T00:21:29;6.00;;;2.33;;
56653;SDS011;45096;52.302;4.634;2023-09-19T00:23:56;4.63;;;1.50;;
56653;SDS011;45096;52.302;4.634;2023-09-19T00:26:21;4.05;;;1.60;;
56653;SDS011;45096;52.302;4.634;2023-09-19T00:28:47;2.30;;;1.35;;
56653;SDS011;45096;52.302;4.634;2023-09-19T00:31:12;3.22;;;1.70;;
56653;SDS011;45096;52.302;4.634;2023-09-19T00:33:38;2.75;;;1.80;;
56653;SDS011;45096;52.302;4.634;2023-09-19T00:36:03;6.75;;;2.10;;
56653;SDS011;45096;52.302;4.634;2023-09-19T00:38:30;5.72;;;2.05;;
56653;SDS011;45096;52.302;4.634;2023-09-19T00:40:56;6.75;;;1.70;;
56653;SDS011;45096;52.302;4.634;2023-09-19T00:43:21;1.60;;;1.50;;
56653;SDS011;45096;52.302;4.634;2023-09-19T00:45:48;3.40;;;1.67;;
56653;SDS011;45096;52.302;4.634;2023-09-19T00:48:14;3.67;;;1.90;;
56653;SDS011;45096;52.302;4.634;2023-09-19T00:50:41;4.40;;;1.67;;
56653;SDS011;45096;52.302;4.634;2023-09-19T00:53:07;8.90;;;2.05;;
56653;SDS011;45096;52.302;4.634;2023-09-19T00:55:34;4.10;;;1.60;;
56653;SDS011;45096;52.302;4.634;2023-09-19T00:58:00;2.97;;;1.92;;
56653;SDS011;45096;52.302;4.634;2023-09-19T01:00:25;3.03;;;1.60;;
56653;SDS011;45096;52.302;4.634;2023-09-19T01:02:51;5.10;;;1.83;;
56653;SDS011;45096;52.302;4.634;2023-09-19T01:05:16;3.33;;;1.77;;
56653;SDS011;45096;52.302;4.634;2023-09-19T01:07:42;5.63;;;2.08;;
56653;SDS011;45096;52.302;4.634;2023-09-19T01:10:08;5.40;;;2.30;;
56653;SDS011;45096;52.302;4.634;2023-09-19T01:12:39;2.58;;;1.80;;
56653;SDS011;45096;52.302;4.634;2023-09-19T01:15:14;4.80;;;1.50;;
56653;SDS011;45096;52.302;4.634;2023-09-19T01:17:46;6.13;;;1.95;;
56653;SDS011;45096;52.302;4.634;2023-09-19T01:20:17;7.90;;;2.10;;
56653;SDS011;45096;52.302;4.634;2023-09-19T01:22:50;3.58;;;1.90;;
56653;SDS011;45096;52.302;4.634;2023-09-19T01:28:14;5.85;;;1.95;;
56653;SDS011;45096;52.302;4.634;2023-09-19T01:30:47;5.45;;;1.90;;
56653;SDS011;45096;52.302;4.634;2023-09-19T01:33:17;5.30;;;1.75;;
56653;SDS011;45096;52.302;4.634;2023-09-19T01:35:42;6.72;;;1.88;;
56653;SDS011;45096;52.302;4.634;2023-09-19T01:38:08;4.93;;;1.60;;
56653;SDS011;45096;52.302;4.634;2023-09-19T01:40:33;8.23;;;2.17;;
56653;SDS011;45096;52.302;4.634;2023-09-19T01:43:06;8.60;;;2.50;;
56653;SDS011;45096;52.302;4.634;2023-09-19T01:45:36;7.97;;;2.30;;
56653;SDS011;45096;52.302;4.634;2023-09-19T01:48:15;5.88;;;2.10;;
56653;SDS011;45096;52.302;4.634;2023-09-19T01:50:46;8.07;;;3.10;;
56653;SDS011;45096;52.302;4.634;2023-09-19T01:53:26;7.53;;;2.30;;
56653;SDS011;45096;52.302;4.634;2023-09-19T01:55:52;6.35;;;2.70;;
56653;SDS011;45096;52.302;4.634;2023-09-19T01:58:20;5.97;;;1.67;;
56653;SDS011;45096;52.302;4.634;2023-09-19T02:00:46;10.15;;;2.05;;
56653;SDS011;45096;52.302;4.634;2023-09-19T02:03:14;6.82;;;1.88;;
56653;SDS011;45096;52.302;4.634;2023-09-19T02:05:40;9.00;;;2.65;;
56653;SDS011;45096;52.302;4.634;2023-09-19T02:08:05;6.47;;;2.17;;
56653;SDS011;45096;52.302;4.634;2023-09-19T02:10:31;5.38;;;1.73;;
56653;SDS011;45096;52.302;4.634;2023-09-19T02:12:56;8.50;;;2.78;;
56653;SDS011;45096;52.302;4.634;2023-09-19T02:15:22;5.68;;;2.30;;
56653;SDS011;45096;52.302;4.634;2023-09-19T02:17:47;8.18;;;2.25;;
56653;SDS011;45096;52.302;4.634;2023-09-19T02:20:14;9.63;;;2.05;;
56653;SDS011;45096;52.302;4.634;2023-09-19T02:22:39;8.40;;;2.00;;
56653;SDS011;45096;52.302;4.634;2023-09-19T02:25:05;4.70;;;1.95;;
56653;SDS011;45096;52.302;4.634;2023-09-19T02:27:31;4.65;;;2.38;;
56653;SDS011;45096;52.302;4.634;2023-09-19T02:29:56;8.43;;;2.30;;
56653;SDS011;45096;52.302;4.634;2023-09-19T02:32:23;7.18;;;1.80;;
56653;SDS011;45096;52.302;4.634;2023-09-19T02:34:48;4.55;;;1.85;;
56653;SDS011;45096;52.302;4.634;2023-09-19T02:37:15;6.13;;;2.33;;
56653;SDS011;45096;52.302;4.634;2023-09-19T02:39:40;5.53;;;2.38;;
56653;SDS011;45096;52.302;4.634;2023-09-19T02:42:06;8.18;;;2.20;;
56653;SDS011;45096;52.302;4.634;2023-09-19T02:44:31;6.03;;;2.08;;
56653;SDS011;45096;52.302;4.634;2023-09-19T02:46:57;8.40;;;1.95;;
56653;SDS011;45096;52.302;4.634;2023-09-19T02:49:22;10.77;;;2.00;;
56653;SDS011;45096;52.302;4.634;2023-09-19T02:51:48;4.88;;;2.20;;
56653;SDS011;45096;52.302;4.634;2023-09-19T02:54:15;5.95;;;1.98;;
56653;SDS011;45096;52.302;4.634;2023-09-19T02:56:40;6.43;;;1.85;;
56653;SDS011;45096;52.302;4.634;2023-09-19T02:59:06;6.82;;;2.28;;
56653;SDS011;45096;52.302;4.634;2023-09-19T03:01:31;7.73;;;2.43;;
56653;SDS011;45096;52.302;4.634;2023-09-19T03:03:57;4.45;;;1.98;;
56653;SDS011;45096;52.302;4.634;2023-09-19T03:06:22;4.50;;;1.67;;
56653;SDS011;45096;52.302;4.634;2023-09-19T03:08:48;7.53;;;2.53;;
56653;SDS011;45096;52.302;4.634;2023-09-19T03:11:14;9.50;;;2.13;;
56653;SDS011;45096;52.302;4.634;2023-09-19T03:13:40;3.47;;;1.58;;
56653;SDS011;45096;52.302;4.634;2023-09-19T03:16:05;8.38;;;2.00;;
56653;SDS011;45096;52.302;4.634;2023-09-19T03:18:31;7.95;;;2.45;;
56653;SDS011;45096;52.302;4.634;2023-09-19T03:20:56;6.43;;;2.10;;
56653;SDS011;45096;52.302;4.634;2023-09-19T03:23:22;3.58;;;1.80;;
56653;SDS011;45096;52.302;4.634;2023-09-19T03:25:47;4.90;;;2.20;;
56653;SDS011;45096;52.302;4.634;2023-09-19T03:28:14;4.72;;;2.03;;
56653;SDS011;45096;52.302;4.634;2023-09-19T03:30:40;6.47;;;2.10;;
56653;SDS011;45096;52.302;4.634;2023-09-19T03:33:05;6.68;;;2.45;;
56653;SDS011;45096;52.302;4.634;2023-09-19T03:35:31;7.95;;;1.88;;
56653;SDS011;45096;52.302;4.634;2023-09-19T03:37:56;6.78;;;2.33;;
56653;SDS011;45096;52.302;4.634;2023-09-19T03:40:22;5.65;;;2.17;;
56653;SDS011;45096;52.302;4.634;2023-09-19T03:42:47;6.65;;;2.40;;
56653;SDS011;45096;52.302;4.634;2023-09-19T03:45:14;7.53;;;2.60;;
56653;SDS011;45096;52.302;4.634;2023-09-19T03:47:39;3.85;;;1.95;;
56653;SDS011;45096;52.302;4.634;2023-09-19T03:50:05;5.45;;;1.70;;
56653;SDS011;45096;52.302;4.634;2023-09-19T03:52:31;5.20;;;1.85;;
56653;SDS011;45096;52.302;4.634;2023-09-19T03:54:56;6.90;;;1.92;;
56653;SDS011;45096;52.302;4.634;2023-09-19T03:57:21;5.22;;;2.03;;
56653;SDS011;45096;52.302;4.634;2023-09-19T03:59:47;6.85;;;2.30;;
56653;SDS011;45096;52.302;4.634;2023-09-19T04:02:14;2.10;;;1.63;;
56653;SDS011;45096;52.302;4.634;2023-09-19T04:04:39;3.00;;;2.25;;
56653;SDS011;45096;52.302;4.634;2023-09-19T04:07:04;2.75;;;1.65;;
56653;SDS011;45096;52.302;4.634;2023-09-19T04:09:30;4.68;;;1.65;;
56653;SDS011;45096;52.302;4.634;2023-09-19T04:11:55;2.05;;;1.45;;
56653;SDS011;45096;52.302;4.634;2023-09-19T04:14:21;4.53;;;1.92;;
56653;SDS011;45096;52.302;4.634;2023-09-19T04:16:46;4.53;;;1.88;;
56653;SDS011;45096;52.302;4.634;2023-09-19T04:19:13;4.05;;;2.45;;
56653;SDS011;45096;52.302;4.634;2023-09-19T04:21:38;6.22;;;3.88;;
56653;SDS011;45096;52.302;4.634;2023-09-19T04:24:04;10.85;;;5.25;;
56653;SDS011;45096;52.302;4.634;2023-09-19T04:26:30;10.63;;;6.97;;
56653;SDS011;45096;52.302;4.634;2023-09-19T04:28:56;6.03;;;3.92;;
56653;SDS011;45096;52.302;4.634;2023-09-19T04:31:21;6.28;;;3.70;;
56653;SDS011;45096;52.302;4.634;2023-09-19T04:33:47;9.02;;;3.85;;
56653;SDS011;45096;52.302;4.634;2023-09-19T04:36:14;6.20;;;2.75;;
56653;SDS011;45096;52.302;4.634;2023-09-19T04:38:40;4.57;;;2.28;;
56653;SDS011;45096;52.302;4.634;2023-09-19T04:41:05;4.82;;;2.38;;
56653;SDS011;45096;52.302;4.634;2023-09-19T04:43:30;7.97;;;2.67;;
56653;SDS011;45096;52.302;4.634;2023-09-19T04:45:56;5.22;;;2.08;;
56653;SDS011;45096;52.302;4.634;2023-09-19T04:48:22;5.50;;;2.33;;
56653;SDS011;45096;52.302;4.634;2023-09-19T04:50:48;4.95;;;2.22;;
56653;SDS011;45096;52.302;4.634;2023-09-19T04:53:15;2.38;;;1.73;;
56653;SDS011;45096;52.302;4.634;2023-09-19T04:55:40;13.00;;;2.30;;
56653;SDS011;45096;52.302;4.634;2023-09-19T04:58:05;4.93;;;1.95;;
56653;SDS011;45096;52.302;4.634;2023-09-19T05:00:31;5.45;;;2.10;;
56653;SDS011;45096;52.302;4.634;2023-09-19T05:02:56;4.90;;;2.38;;
56653;SDS011;45096;52.302;4.634;2023-09-19T05:05:22;7.72;;;2.58;;
56653;SDS011;45096;52.302;4.634;2023-09-19T05:07:48;5.45;;;2.33;;
56653;SDS011;45096;52.302;4.634;2023-09-19T05:10:15;5.75;;;2.05;;
56653;SDS011;45096;52.302;4.634;2023-09-19T05:12:40;4.97;;;2.08;;
56653;SDS011;45096;52.302;4.634;2023-09-19T05:15:06;3.20;;;2.30;;
56653;SDS011;45096;52.302;4.634;2023-09-19T05:17:32;6.22;;;1.95;;
56653;SDS011;45096;52.302;4.634;2023-09-19T05:20:01;3.05;;;1.90;;
56653;SDS011;45096;52.302;4.634;2023-09-19T05:22:27;5.68;;;2.20;;
56653;SDS011;45096;52.302;4.634;2023-09-19T05:24:52;5.38;;;1.90;;
56653;SDS011;45096;52.302;4.634;2023-09-19T05:27:19;7.65;;;2.00;;
56653;SDS011;45096;52.302;4.634;2023-09-19T05:29:44;7.68;;;2.63;;
56653;SDS011;45096;52.302;4.634;2023-09-19T05:32:10;8.73;;;2.90;;
56653;SDS011;45096;52.302;4.634;2023-09-19T05:34:35;5.07;;;3.45;;
56653;SDS011;45096;52.302;4.634;2023-09-19T05:37:01;6.45;;;3.20;;
56653;SDS011;45096;52.302;4.634;2023-09-19T05:39:26;9.68;;;2.80;;
56653;SDS011;45096;52.302;4.634;2023-09-19T05:41:52;4.38;;;2.35;;
56653;SDS011;45096;52.302;4.634;2023-09-19T05:44:18;9.52;;;2.75;;
56653;SDS011;45096;52.302;4.634;2023-09-19T05:46:44;6.75;;;2.35;;
56653;SDS011;45096;52.302;4.634;2023-09-19T05:49:09;3.40;;;2.30;;
56653;SDS011;45096;52.302;4.634;2023-09-19T05:51:35;5.53;;;2.25;;
56653;SDS011;45096;52.302;4.634;2023-09-19T05:54:00;2.28;;;1.85;;
56653;SDS011;45096;52.302;4.634;2023-09-19T05:56:26;5.05;;;2.20;;
56653;SDS011;45096;52.302;4.634;2023-09-19T05:58:51;7.45;;;2.88;;
56653;SDS011;45096;52.302;4.634;2023-09-19T06:01:18;9.98;;;2.40;;
56653;SDS011;45096;52.302;4.634;2023-09-19T06:03:43;3.97;;;1.90;;
56653;SDS011;45096;52.302;4.634;2023-09-19T06:06:09;10.35;;;2.58;;
56653;SDS011;45096;52.302;4.634;2023-09-19T06:08:34;4.63;;;2.47;;
56653;SDS011;45096;52.302;4.634;2023-09-19T06:11:00;5.53;;;2.10;;
56653;SDS011;45096;52.302;4.634;2023-09-19T06:13:27;6.50;;;2.63;;
56653;SDS011;45096;52.302;4.634;2023-09-19T06:15:53;6.40;;;2.05;;
56653;SDS011;45096;52.302;4.634;2023-09-19T06:18:19;5.93;;;2.97;;
56653;SDS011;45096;52.302;4.634;2023-09-19T06:20:45;5.60;;;2.60;;
56653;SDS011;45096;52.302;4.634;2023-09-19T06:23:11;9.35;;;2.80;;
56653;SDS011;45096;52.302;4.634;2023-09-19T06:25:36;4.10;;;2.35;;
56653;SDS011;45096;52.302;4.634;2023-09-19T06:28:02;7.18;;;2.47;;
56653;SDS011;45096;52.302;4.634;2023-09-19T06:30:27;7.20;;;1.85;;
56653;SDS011;45096;52.302;4.634;2023-09-19T06:32:56;7.40;;;3.15;;
56653;SDS011;45096;52.302;4.634;2023-09-19T06:35:23;9.70;;;2.47;;
56653;SDS011;45096;52.302;4.634;2023-09-19T06:37:49;8.77;;;2.90;;
56653;SDS011;45096;52.302;4.634;2023-09-19T06:40:14;7.65;;;2.75;;
56653;SDS011;45096;52.302;4.634;2023-09-19T06:42:40;6.32;;;2.65;;
56653;SDS011;45096;52.302;4.634;2023-09-19T06:45:06;7.57;;;2.22;;
56653;SDS011;45096;52.302;4.634;2023-09-19T06:47:32;10.00;;;3.45;;
56653;SDS011;45096;52.302;4.634;2023-09-19T06:49:58;12.95;;;3.20;;
56653;SDS011;45096;52.302;4.634;2023-09-19T06:52:24;8.57;;;2.72;;
56653;SDS011;45096;52.302;4.634;2023-09-19T06:54:50;12.38;;;3.17;;
56653;SDS011;45096;52.302;4.634;2023-09-19T06:57:15;11.85;;;2.88;;
56653;SDS011;45096;52.302;4.634;2023-09-19T06:59:41;5.93;;;2.50;;
56653;SDS011;45096;52.302;4.634;2023-09-19T07:02:06;8.07;;;2.60;;
56653;SDS011;45096;52.302;4.634;2023-09-19T07:04:31;11.32;;;2.75;;
56653;SDS011;45096;52.302;4.634;2023-09-19T07:06:57;5.20;;;2.10;;
56653;SDS011;45096;52.302;4.634;2023-09-19T07:09:24;7.10;;;2.53;;
56653;SDS011;45096;52.302;4.634;2023-09-19T07:11:49;11.77;;;2.88;;
56653;SDS011;45096;52.302;4.634;2023-09-19T07:14:14;7.03;;;2.25;;
56653;SDS011;45096;52.302;4.634;2023-09-19T07:16:40;6.60;;;2.55;;
56653;SDS011;45096;52.302;4.634;2023-09-19T07:19:05;7.78;;;2.85;;
56653;SDS011;45096;52.302;4.634;2023-09-19T07:21:31;6.43;;;2.65;;
56653;SDS011;45096;52.302;4.634;2023-09-19T07:23:56;6.35;;;2.30;;
56653;SDS011;45096;52.302;4.634;2023-09-19T07:26:23;5.00;;;2.78;;
56653;SDS011;45096;52.302;4.634;2023-09-19T07:28:48;8.27;;;2.53;;
56653;SDS011;45096;52.302;4.634;2023-09-19T07:31:14;11.57;;;2.90;;
56653;SDS011;45096;52.302;4.634;2023-09-19T07:33:39;6.88;;;2.45;;
56653;SDS011;45096;52.302;4.634;2023-09-19T07:36:05;7.68;;;2.50;;
56653;SDS011;45096;52.302;4.634;2023-09-19T07:38:31;8.80;;;2.90;;
56653;SDS011;45096;52.302;4.634;2023-09-19T07:40:59;8.07;;;2.58;;
56653;SDS011;45096;52.302;4.634;2023-09-19T07:43:26;7.20;;;2.42;;
56653;SDS011;45096;52.302;4.634;2023-09-19T07:45:52;8.45;;;2.90;;
56653;SDS011;45096;52.302;4.634;2023-09-19T07:48:17;12.77;;;2.85;;
56653;SDS011;45096;52.302;4.634;2023-09-19T07:50:42;6.97;;;2.85;;
56653;SDS011;45096;52.302;4.634;2023-09-19T07:53:08;5.32;;;3.03;;
56653;SDS011;45096;52.302;4.634;2023-09-19T07:55:33;6.22;;;2.50;;
56653;SDS011;45096;52.302;4.634;2023-09-19T07:57:59;7.93;;;2.58;;
56653;SDS011;45096;52.302;4.634;2023-09-19T08:00:26;6.35;;;2.50;;
56653;SDS011;45096;52.302;4.634;2023-09-19T08:02:51;9.02;;;2.95;;
56653;SDS011;45096;52.302;4.634;2023-09-19T08:05:17;9.93;;;3.33;;
56653;SDS011;45096;52.302;4.634;2023-09-19T08:07:43;9.25;;;3.13;;
56653;SDS011;45096;52.302;4.634;2023-09-19T08:10:10;9.75;;;3.47;;
56653;SDS011;45096;52.302;4.634;2023-09-19T08:12:35;5.13;;;3.05;;
56653;SDS011;45096;52.302;4.634;2023-09-19T08:15:01;9.85;;;2.55;;
56653;SDS011;45096;52.302;4.634;2023-09-19T08:17:28;8.75;;;3.13;;
56653;SDS011;45096;52.302;4.634;2023-09-19T08:19:53;9.77;;;3.88;;
56653;SDS011;45096;52.302;4.634;2023-09-19T08:22:19;10.60;;;4.10;;
56653;SDS011;45096;52.302;4.634;2023-09-19T08:24:44;6.97;;;3.25;;
56653;SDS011;45096;52.302;4.634;2023-09-19T08:27:10;10.20;;;3.22;;
56653;SDS011;45096;52.302;4.634;2023-09-19T08:29:35;7.22;;;2.60;;
56653;SDS011;45096;52.302;4.634;2023-09-19T08:32:01;7.38;;;3.08;;
56653;SDS011;45096;52.302;4.634;2023-09-19T08:34:27;8.07;;;3.03;;
56653;SDS011;45096;52.302;4.634;2023-09-19T08:36:53;7.85;;;2.85;;
56653;SDS011;45096;52.302;4.634;2023-09-19T08:39:19;7.57;;;3.70;;
56653;SDS011;45096;52.302;4.634;2023-09-19T08:41:45;11.88;;;2.85;;
56653;SDS011;45096;52.302;4.634;2023-09-19T08:44:10;7.38;;;3.15;;
56653;SDS011;45096;52.302;4.634;2023-09-19T08:46:36;11.05;;;2.60;;
56653;SDS011;45096;52.302;4.634;2023-09-19T08:49:03;11.13;;;3.30;;
56653;SDS011;45096;52.302;4.634;2023-09-19T08:51:33;8.77;;;3.38;;
56653;SDS011;45096;52.302;4.634;2023-09-19T08:54:07;6.63;;;2.88;;
56653;SDS011;45096;52.302;4.634;2023-09-19T08:56:32;10.70;;;3.17;;
56653;SDS011;45096;52.302;4.634;2023-09-19T08:58:59;10.85;;;3.13;;
56653;SDS011;45096;52.302;4.634;2023-09-19T09:01:26;12.50;;;3.60;;
56653;SDS011;45096;52.302;4.634;2023-09-19T09:03:52;11.65;;;3.58;;
56653;SDS011;45096;52.302;4.634;2023-09-19T09:06:18;13.23;;;3.53;;
56653;SDS011;45096;52.302;4.634;2023-09-19T09:08:46;3.72;;;2.40;;
56653;SDS011;45096;52.302;4.634;2023-09-19T09:11:11;10.68;;;3.50;;
56653;SDS011;45096;52.302;4.634;2023-09-19T09:13:38;9.30;;;2.63;;
56653;SDS011;45096;52.302;4.634;2023-09-19T09:16:03;9.27;;;2.80;;
56653;SDS011;45096;52.302;4.634;2023-09-19T09:18:29;8.52;;;3.28;;
56653;SDS011;45096;52.302;4.634;2023-09-19T09:20:54;8.38;;;3.92;;
56653;SDS011;45096;52.302;4.634;2023-09-19T09:23:20;7.40;;;2.60;;
56653;SDS011;45096;52.302;4.634;2023-09-19T09:25:53;10.23;;;3.50;;
56653;SDS011;45096;52.302;4.634;2023-09-19T09:28:19;11.73;;;4.03;;
56653;SDS011;45096;52.302;4.634;2023-09-19T09:30:46;9.13;;;2.85;;
56653;SDS011;45096;52.302;4.634;2023-09-19T09:33:12;9.48;;;3.17;;
56653;SDS011;45096;52.302;4.634;2023-09-19T09:35:46;9.65;;;3.20;;
56653;SDS011;45096;52.302;4.634;2023-09-19T09:38:12;7.68;;;2.50;;
56653;SDS011;45096;52.302;4.634;2023-09-19T09:40:47;7.70;;;2.97;;
56653;SDS011;45096;52.302;4.634;2023-09-19T09:43:26;10.15;;;2.92;;
56653;SDS011;45096;52.302;4.634;2023-09-19T09:45:57;10.77;;;3.45;;
56653;SDS011;45096;52.302;4.634;2023-09-19T09:48:31;10.20;;;3.47;;
56653;SDS011;45096;52.302;4.634;2023-09-19T09:50:57;9.57;;;2.55;;
56653;SDS011;45096;52.302;4.634;2023-09-19T09:53:22;10.55;;;2.90;;
56653;SDS011;45096;52.302;4.634;2023-09-19T09:55:58;9.48;;;3.17;;
56653;SDS011;45096;52.302;4.634;2023-09-19T09:58:28;16.35;;;3.25;;
56653;SDS011;45096;52.302;4.634;2023-09-19T10:00:53;10.45;;;3.30;;
56653;SDS011;45096;52.302;4.634;2023-09-19T10:03:19;12.38;;;3.17;;
56653;SDS011;45096;52.302;4.634;2023-09-19T10:05:45;10.32;;;2.90;;
56653;SDS011;45096;52.302;4.634;2023-09-19T10:08:11;11.98;;;3.65;;
56653;SDS011;45096;52.302;4.634;2023-09-19T10:10:37;9.45;;;2.92;;
56653;SDS011;45096;52.302;4.634;2023-09-19T10:13:03;9.93;;;3.03;;
56653;SDS011;45096;52.302;4.634;2023-09-19T10:15:32;9.82;;;2.90;;
56653;SDS011;45096;52.302;4.634;2023-09-19T10:17:58;10.85;;;3.13;;
56653;SDS011;45096;52.302;4.634;2023-09-19T10:20:25;6.97;;;2.63;;
56653;SDS011;45096;52.302;4.634;2023-09-19T10:22:51;9.63;;;2.90;;
56653;SDS011;45096;52.302;4.634;2023-09-19T10:25:18;9.50;;;2.50;;
56653;SDS011;45096;52.302;4.634;2023-09-19T10:27:44;7.28;;;2.58;;
56653;SDS011;45096;52.302;4.634;2023-09-19T10:30:09;19.52;;;9.43;;
56653;SDS011;45096;52.302;4.634;2023-09-19T10:32:37;13.75;;;5.70;;
56653;SDS011;45096;52.302;4.634;2023-09-19T10:35:05;11.48;;;3.83;;
56653;SDS011;45096;52.302;4.634;2023-09-19T10:37:31;7.85;;;2.83;;
56653;SDS011;45096;52.302;4.634;2023-09-19T10:39:57;6.32;;;2.75;;
56653;SDS011;45096;52.302;4.634;2023-09-19T10:42:23;18.05;;;8.30;;
56653;SDS011;45096;52.302;4.634;2023-09-19T10:44:51;20.67;;;11.43;;
56653;SDS011;45096;52.302;4.634;2023-09-19T10:47:17;13.38;;;4.78;;
56653;SDS011;45096;52.302;4.634;2023-09-19T10:49:44;6.95;;;3.25;;
56653;SDS011;45096;52.302;4.634;2023-09-19T10:52:10;9.70;;;3.67;;
56653;SDS011;45096;52.302;4.634;2023-09-19T10:54:35;10.65;;;2.40;;
56653;SDS011;45096;52.302;4.634;2023-09-19T10:57:01;3.28;;;2.22;;
56653;SDS011;45096;52.302;4.634;2023-09-19T10:59:26;6.95;;;2.88;;
56653;SDS011;45096;52.302;4.634;2023-09-19T11:01:53;5.88;;;2.15;;
56653;SDS011;45096;52.302;4.634;2023-09-19T11:04:23;7.13;;;2.60;;
56653;SDS011;45096;52.302;4.634;2023-09-19T11:07:00;5.05;;;2.42;;
56653;SDS011;45096;52.302;4.634;2023-09-19T11:09:33;6.20;;;2.28;;
56653;SDS011;45096;52.302;4.634;2023-09-19T11:12:08;7.82;;;2.70;;
56653;SDS011;45096;52.302;4.634;2023-09-19T11:14:40;5.82;;;2.08;;
56653;SDS011;45096;52.302;4.634;2023-09-19T11:17:29;8.50;;;2.00;;
56653;SDS011;45096;52.302;4.634;2023-09-19T11:25:46;5.25;;;2.25;;
56653;SDS011;45096;52.302;4.634;2023-09-19T11:28:27;6.93;;;2.42;;
56653;SDS011;45096;52.302;4.634;2023-09-19T11:30:54;5.35;;;2.10;;
56653;SDS011;45096;52.302;4.634;2023-09-19T11:33:19;4.53;;;2.20;;
56653;SDS011;45096;52.302;4.634;2023-09-19T11:41:36;6.93;;;5.18;;
56653;SDS011;45096;52.302;4.634;2023-09-19T11:46:59;4.68;;;3.20;;
56653;SDS011;45096;52.302;4.634;2023-09-19T11:49:26;6.10;;;3.15;;
56653;SDS011;45096;52.302;4.634;2023-09-19T11:51:52;5.03;;;2.72;;
56653;SDS011;45096;52.302;4.634;2023-09-19T11:54:19;6.28;;;2.20;;
56653;SDS011;45096;52.302;4.634;2023-09-19T11:56:45;7.40;;;3.15;;
56653;SDS011;45096;52.302;4.634;2023-09-19T11:59:11;2.63;;;1.90;;
56653;SDS011;45096;52.302;4.634;2023-09-19T12:01:37;2.25;;;1.92;;
56653;SDS011;45096;52.302;4.634;2023-09-19T12:04:03;5.50;;;2.13;;
56653;SDS011;45096;52.302;4.634;2023-09-19T12:06:29;6.40;;;2.63;;
56653;SDS011;45096;52.302;4.634;2023-09-19T12:08:55;5.72;;;2.30;;
56653;SDS011;45096;52.302;4.634;2023-09-19T12:11:22;4.55;;;2.50;;
56653;SDS011;45096;52.302;4.634;2023-09-19T12:13:48;4.93;;;1.95;;
56653;SDS011;45096;52.302;4.634;2023-09-19T12:16:14;4.88;;;1.75;;
56653;SDS011;45096;52.302;4.634;2023-09-19T12:18:40;2.95;;;1.75;;
56653;SDS011;45096;52.302;4.634;2023-09-19T12:21:06;4.72;;;1.73;;
56653;SDS011;45096;52.302;4.634;2023-09-19T12:23:31;4.13;;;1.73;;
56653;SDS011;45096;52.302;4.634;2023-09-19T12:25:57;1.85;;;1.65;;
56653;SDS011;45096;52.302;4.634;2023-09-19T12:28:24;3.53;;;2.08;;
56653;SDS011;45096;52.302;4.634;2023-09-19T12:30:52;3.40;;;1.83;;
56653;SDS011;45096;52.302;4.634;2023-09-19T12:33:18;5.43;;;2.22;;
56653;SDS011;45096;52.302;4.634;2023-09-19T12:35:43;3.20;;;1.48;;
56653;SDS011;45096;52.302;4.634;2023-09-19T12:38:09;12.07;;;3.25;;
56653;SDS011;45096;52.302;4.634;2023-09-19T12:40:34;7.93;;;2.20;;
56653;SDS011;45096;52.302;4.634;2023-09-19T12:43:00;4.82;;;1.80;;
56653;SDS011;45096;52.302;4.634;2023-09-19T12:45:27;6.72;;;1.90;;
56653;SDS011;45096;52.302;4.634;2023-09-19T12:53:29;5.35;;;2.17;;
56653;SDS011;45096;52.302;4.634;2023-09-19T12:55:57;4.43;;;2.03;;
56653;SDS011;45096;52.302;4.634;2023-09-19T12:58:23;5.57;;;2.20;;
56653;SDS011;45096;52.302;4.634;2023-09-19T13:00:50;8.25;;;2.60;;
56653;SDS011;45096;52.302;4.634;2023-09-19T13:03:17;5.75;;;2.55;;
56653;SDS011;45096;52.302;4.634;2023-09-19T13:05:49;7.45;;;2.47;;
56653;SDS011;45096;52.302;4.634;2023-09-19T13:08:19;7.90;;;2.83;;
56653;SDS011;45096;52.302;4.634;2023-09-19T13:11:02;5.13;;;2.65;;
56653;SDS011;45096;52.302;4.634;2023-09-19T13:13:28;9.80;;;4.88;;
56653;SDS011;45096;52.302;4.634;2023-09-19T13:15:55;12.48;;;5.05;;
56653;SDS011;45096;52.302;4.634;2023-09-19T13:18:20;6.50;;;3.00;;
56653;SDS011;45096;52.302;4.634;2023-09-19T13:20:53;8.98;;;3.22;;
56653;SDS011;45096;52.302;4.634;2023-09-19T13:23:30;7.57;;;2.75;;
56653;SDS011;45096;52.302;4.634;2023-09-19T13:25:55;9.02;;;2.38;;
56653;SDS011;45096;52.302;4.634;2023-09-19T13:28:21;5.40;;;2.50;;
56653;SDS011;45096;52.302;4.634;2023-09-19T13:30:46;9.43;;;2.35;;
56653;SDS011;45096;52.302;4.634;2023-09-19T13:33:13;6.38;;;2.53;;
56653;SDS011;45096;52.302;4.634;2023-09-19T13:35:38;4.93;;;2.55;;
56653;SDS011;45096;52.302;4.634;2023-09-19T13:38:04;6.93;;;2.88;;
56653;SDS011;45096;52.302;4.634;2023-09-19T13:40:29;6.55;;;2.70;;
56653;SDS011;45096;52.302;4.634;2023-09-19T13:42:55;7.05;;;2.78;;
56653;SDS011;45096;52.302;4.634;2023-09-19T13:45:20;8.93;;;3.38;;
56653;SDS011;45096;52.302;4.634;2023-09-19T13:47:46;7.90;;;3.10;;
56653;SDS011;45096;52.302;4.634;2023-09-19T13:50:12;11.10;;;2.85;;
56653;SDS011;45096;52.302;4.634;2023-09-19T13:52:38;12.65;;;2.55;;
56653;SDS011;45096;52.302;4.634;2023-09-19T13:55:04;4.85;;;2.25;;
56653;SDS011;45096;52.302;4.634;2023-09-19T13:57:30;8.20;;;2.47;;
56653;SDS011;45096;52.302;4.634;2023-09-19T13:59:55;5.43;;;2.53;;
56653;SDS011;45096;52.302;4.634;2023-09-19T14:02:21;11.25;;;3.60;;
56653;SDS011;45096;52.302;4.634;2023-09-19T14:04:46;9.27;;;2.72;;
56653;SDS011;45096;52.302;4.634;2023-09-19T14:07:13;9.00;;;2.88;;
56653;SDS011;45096;52.302;4.634;2023-09-19T14:09:38;8.32;;;2.47;;
56653;SDS011;45096;52.302;4.634;2023-09-19T14:12:04;10.15;;;3.05;;
56653;SDS011;45096;52.302;4.634;2023-09-19T14:14:30;16.65;;;2.90;;
56653;SDS011;45096;52.302;4.634;2023-09-19T14:16:56;5.50;;;2.90;;
56653;SDS011;45096;52.302;4.634;2023-09-19T14:19:21;11.75;;;4.18;;
56653;SDS011;45096;52.302;4.634;2023-09-19T14:21:46;8.80;;;3.15;;
56653;SDS011;45096;52.302;4.634;2023-09-19T14:24:17;15.88;;;4.40;;
56653;SDS011;45096;52.302;4.634;2023-09-19T14:26:42;11.73;;;4.30;;
56653;SDS011;45096;52.302;4.634;2023-09-19T14:29:08;9.35;;;3.22;;
56653;SDS011;45096;52.302;4.634;2023-09-19T14:31:33;13.25;;;3.53;;
56653;SDS011;45096;52.302;4.634;2023-09-19T14:33:59;11.85;;;3.80;;
56653;SDS011;45096;52.302;4.634;2023-09-19T14:36:24;12.55;;;3.40;;
56653;SDS011;45096;52.302;4.634;2023-09-19T14:38:52;8.50;;;2.95;;
56653;SDS011;45096;52.302;4.634;2023-09-19T14:41:19;13.18;;;3.40;;
56653;SDS011;45096;52.302;4.634;2023-09-19T14:43:44;8.30;;;3.60;;
56653;SDS011;45096;52.302;4.634;2023-09-19T14:46:10;8.48;;;3.33;;
56653;SDS011;45096;52.302;4.634;2023-09-19T14:48:35;9.98;;;2.95;;
56653;SDS011;45096;52.302;4.634;2023-09-19T14:51:03;10.25;;;3.50;;
56653;SDS011;45096;52.302;4.634;2023-09-19T14:53:29;11.98;;;3.63;;
56653;SDS011;45096;52.302;4.634;2023-09-19T14:55:54;12.15;;;3.75;;
56653;SDS011;45096;52.302;4.634;2023-09-19T14:58:21;9.18;;;3.20;;
56653;SDS011;45096;52.302;4.634;2023-09-19T15:00:47;7.75;;;3.13;;
56653;SDS011;45096;52.302;4.634;2023-09-19T15:03:12;8.32;;;3.20;;
56653;SDS011;45096;52.302;4.634;2023-09-19T15:05:38;9.48;;;4.03;;